createdAt,value
2018-11-02T00:00:42.104Z,85.90
2018-11-02T00:03:10.736Z,86.10
2018-11-02T00:05:39.223Z,87.20
2018-11-02T00:08:08.564Z,86.00
2018-11-02T00:10:37.072Z,86.20
2018-11-02T00:13:05.679Z,86.60
2018-11-02T00:15:37.267Z,86.70
2018-11-02T00:18:06.062Z,87.00
2018-11-02T00:20:34.646Z,87.50
2018-11-02T00:23:03.234Z,87.70
2018-11-02T00:25:31.779Z,88.10
2018-11-02T00:28:00.367Z,88.50
2018-11-02T00:30:28.963Z,88.80
2018-11-02T00:32:57.541Z,89.10
2018-11-02T00:35:26.021Z,89.40
2018-11-02T00:37:54.605Z,89.40
2018-11-02T00:40:23.176Z,89.80
2018-11-02T00:42:51.897Z,89.60
2018-11-02T00:45:20.383Z,89.40
2018-11-02T00:47:48.981Z,89.60
2018-11-02T00:50:17.639Z,89.90
2018-11-02T00:52:53.199Z,89.90
2018-11-02T00:55:21.749Z,90.00
2018-11-02T00:57:50.406Z,90.00
2018-11-02T01:00:18.997Z,90.00
2018-11-02T01:02:47.502Z,89.90
2018-11-02T01:05:16.116Z,89.60
2018-11-02T01:07:44.646Z,89.20
2018-11-02T01:10:13.161Z,88.80
2018-11-02T01:12:41.817Z,87.90
2018-11-02T01:15:10.913Z,88.40
2018-11-02T01:17:39.562Z,88.40
2018-11-02T01:20:09.958Z,88.30
2018-11-02T01:22:38.549Z,88.20
2018-11-02T01:25:07.727Z,87.90
2018-11-02T01:27:36.243Z,87.90
2018-11-02T01:30:05.288Z,88.00
2018-11-02T01:32:33.818Z,88.30
2018-11-02T01:35:02.368Z,88.30
2018-11-02T01:37:30.864Z,88.60
2018-11-02T01:40:07.081Z,88.60
2018-11-02T01:42:35.787Z,88.80
2018-11-02T01:45:04.554Z,89.10
2018-11-02T01:47:33.155Z,89.50
2018-11-02T01:50:01.705Z,89.50
2018-11-02T01:52:30.269Z,89.80
2018-11-02T01:54:58.909Z,90.10
2018-11-02T01:57:27.515Z,90.20
2018-11-02T01:59:56.152Z,90.40
2018-11-02T02:02:24.794Z,90.50
2018-11-02T02:04:53.330Z,91.00
2018-11-02T02:07:22.010Z,90.80
2018-11-02T02:09:50.691Z,90.80
2018-11-02T02:12:19.324Z,90.90
2018-11-02T02:14:48.025Z,90.90
2018-11-02T02:17:16.549Z,90.90
2018-11-02T02:19:45.183Z,91.00
2018-11-02T02:22:13.862Z,90.90
2018-11-02T02:24:42.417Z,91.00
2018-11-02T02:27:12.280Z,91.00
2018-11-02T02:29:40.838Z,91.00
2018-11-02T02:32:09.378Z,91.00
2018-11-02T02:34:37.936Z,91.00
2018-11-02T02:37:06.572Z,91.00
2018-11-02T02:39:35.178Z,91.00
2018-11-02T02:42:03.748Z,91.00
2018-11-02T02:44:32.356Z,91.10
2018-11-02T02:47:00.949Z,91.10
2018-11-02T02:49:29.561Z,91.10
2018-11-02T02:51:58.175Z,91.10
2018-11-02T02:54:26.688Z,91.10
2018-11-02T02:56:55.418Z,91.20
2018-11-02T02:59:23.976Z,91.20
2018-11-02T03:01:52.613Z,91.20
2018-11-02T03:04:21.197Z,91.20
2018-11-02T03:06:49.751Z,91.30
2018-11-02T03:09:18.365Z,91.30
2018-11-02T03:11:46.962Z,91.30
2018-11-02T03:14:16.173Z,91.30
2018-11-02T03:16:44.669Z,91.30
2018-11-02T03:19:13.739Z,91.20
2018-11-02T03:21:42.401Z,91.20
2018-11-02T03:24:11.342Z,91.70
2018-11-02T03:26:39.906Z,91.30
2018-11-02T03:29:08.457Z,91.40
2018-11-02T03:31:37.013Z,91.30
2018-11-02T03:34:05.997Z,91.30
2018-11-02T03:36:34.633Z,91.40
2018-11-02T03:39:03.362Z,91.30
2018-11-02T03:41:31.864Z,91.60
2018-11-02T03:44:00.479Z,91.30
2018-11-02T03:46:29.185Z,91.30
2018-11-02T03:48:57.784Z,91.20
2018-11-02T03:51:26.480Z,91.20
2018-11-02T03:53:55.261Z,91.20
2018-11-02T03:56:23.869Z,91.20
2018-11-02T03:58:52.433Z,91.20
2018-11-02T04:01:21.382Z,91.30
2018-11-02T04:03:50.010Z,91.40
2018-11-02T04:06:18.627Z,91.40
2018-11-02T04:08:47.317Z,91.30
2018-11-02T04:11:15.825Z,91.30
2018-11-02T04:13:44.363Z,91.30
2018-11-02T04:16:12.973Z,91.20
2018-11-02T04:18:41.525Z,91.20
2018-11-02T04:21:10.208Z,91.20
2018-11-02T04:23:39.546Z,91.10
2018-11-02T04:26:08.343Z,91.10
2018-11-02T04:28:37.017Z,91.00
2018-11-02T04:31:05.654Z,91.00
2018-11-02T04:33:34.188Z,91.00
2018-11-02T04:36:02.777Z,91.00
2018-11-02T04:38:31.325Z,91.00
2018-11-02T04:40:59.994Z,91.00
2018-11-02T04:43:28.489Z,90.90
2018-11-02T04:45:57.043Z,91.00
2018-11-02T04:48:29.375Z,91.00
2018-11-02T04:50:57.974Z,91.10
2018-11-02T04:53:26.561Z,91.00
2018-11-02T04:55:55.107Z,91.00
2018-11-02T04:58:23.689Z,91.00
2018-11-02T05:00:52.255Z,90.90
2018-11-02T05:03:20.790Z,91.00
2018-11-02T05:05:49.421Z,90.90
2018-11-02T05:08:17.942Z,90.90
2018-11-02T05:10:46.556Z,90.90
2018-11-02T05:13:15.127Z,90.90
2018-11-02T05:15:43.707Z,91.10
2018-11-02T05:18:12.289Z,90.90
2018-11-02T05:20:40.854Z,90.90
2018-11-02T05:23:09.389Z,90.90
2018-11-02T05:25:38.097Z,90.90
2018-11-02T05:28:06.893Z,91.00
2018-11-02T05:30:35.452Z,91.20
2018-11-02T05:33:04.134Z,91.10
2018-11-02T05:35:32.649Z,91.00
2018-11-02T05:38:01.213Z,90.90
2018-11-02T05:40:29.777Z,91.00
2018-11-02T05:42:58.349Z,90.90
2018-11-02T05:45:26.937Z,90.90
2018-11-02T05:47:55.541Z,91.00
2018-11-02T05:50:24.108Z,91.00
2018-11-02T05:52:52.729Z,90.90
2018-11-02T05:55:21.302Z,90.80
2018-11-02T05:57:49.980Z,90.80
2018-11-02T06:00:18.565Z,90.80
2018-11-02T06:02:47.225Z,90.70
2018-11-02T06:05:15.785Z,90.70
2018-11-02T06:07:44.365Z,90.60
2018-11-02T06:10:12.929Z,90.60
2018-11-02T06:12:41.608Z,90.50
2018-11-02T06:15:10.104Z,90.50
2018-11-02T06:17:38.711Z,90.60
2018-11-02T06:20:12.259Z,90.60
2018-11-02T06:22:41.653Z,90.60
2018-11-02T06:25:10.273Z,90.70
2018-11-02T06:27:38.988Z,90.80
2018-11-02T06:30:08.749Z,90.90
2018-11-02T06:32:37.637Z,90.90
2018-11-02T06:35:07.421Z,90.90
2018-11-02T06:37:37.116Z,90.90
2018-11-02T06:40:06.513Z,91.00
2018-11-02T06:42:35.254Z,91.00
2018-11-02T06:45:03.897Z,90.90
2018-11-02T06:47:32.459Z,90.90
2018-11-02T06:50:00.969Z,91.00
2018-11-02T06:52:29.665Z,91.30
2018-11-02T06:54:59.061Z,91.00
2018-11-02T06:57:28.088Z,90.90
2018-11-02T06:59:56.915Z,90.90
2018-11-02T07:02:27.220Z,90.80
2018-11-02T07:04:56.042Z,90.90
2018-11-02T07:07:27.357Z,90.90
2018-11-02T07:09:56.216Z,90.90
2018-11-02T07:12:24.825Z,90.90
2018-11-02T07:14:53.397Z,90.80
2018-11-02T07:17:22.573Z,90.80
2018-11-02T07:19:51.440Z,90.80
2018-11-02T07:22:20.262Z,90.70
2018-11-02T07:24:48.928Z,90.70
2018-11-02T07:27:17.690Z,90.90
2018-11-02T07:29:46.328Z,90.30
2018-11-02T07:32:15.433Z,90.50
2018-11-02T07:34:44.021Z,90.50
2018-11-02T07:37:12.751Z,90.60
2018-11-02T07:39:41.290Z,90.60
2018-11-02T07:42:09.889Z,90.50
2018-11-02T07:44:38.585Z,90.40
2018-11-02T07:47:07.233Z,90.40
2018-11-02T07:49:36.025Z,90.30
2018-11-02T07:52:04.997Z,90.20
2018-11-02T07:54:33.956Z,90.30
2018-11-02T07:57:02.587Z,90.30
2018-11-02T07:59:31.414Z,90.20
2018-11-02T08:02:00.204Z,90.10
2018-11-02T08:04:28.777Z,90.50
2018-11-02T08:06:57.386Z,90.00
2018-11-02T08:09:26.134Z,90.00
2018-11-02T08:11:54.815Z,89.90
2018-11-02T08:14:23.657Z,89.60
2018-11-02T08:16:52.323Z,89.50
2018-11-02T08:19:20.986Z,89.10
2018-11-02T08:21:49.510Z,88.10
2018-11-02T08:24:18.161Z,86.90
2018-11-02T08:26:46.846Z,86.40
2018-11-02T08:29:15.463Z,86.00
2018-11-02T08:31:44.066Z,86.30
2018-11-02T08:34:12.679Z,86.40
2018-11-02T08:36:41.281Z,86.90
2018-11-02T08:39:11.441Z,87.10
2018-11-02T08:41:39.975Z,87.10
2018-11-02T08:44:09.142Z,86.90
2018-11-02T08:46:38.078Z,86.70
2018-11-02T08:49:06.742Z,86.30
2018-11-02T08:51:35.349Z,86.20
2018-11-02T08:54:04.177Z,86.20
2018-11-02T08:56:32.901Z,85.80
2018-11-02T08:59:01.668Z,85.60
2018-11-02T09:01:30.627Z,85.60
2018-11-02T09:03:59.258Z,85.00
2018-11-02T09:06:27.913Z,85.00
2018-11-02T09:08:56.785Z,84.80
2018-11-02T09:11:25.458Z,83.40
2018-11-02T09:13:54.673Z,82.90
2018-11-02T09:16:23.275Z,82.80
2018-11-02T09:18:52.142Z,82.60
2018-11-02T09:21:20.627Z,82.30
2018-11-02T09:23:49.478Z,81.90
2018-11-02T09:26:18.137Z,81.80
2018-11-02T09:28:46.752Z,82.10
2018-11-02T09:31:15.432Z,81.90
2018-11-02T09:33:44.331Z,81.60
2018-11-02T09:36:13.150Z,81.20
2018-11-02T09:38:42.047Z,80.80
2018-11-02T09:41:10.714Z,81.60
2018-11-02T09:43:39.326Z,81.00
2018-11-02T09:46:07.929Z,79.90
2018-11-02T09:48:36.615Z,80.30
2018-11-02T09:51:05.746Z,80.40
2018-11-02T09:53:34.703Z,80.40
2018-11-02T09:56:03.491Z,78.40
2018-11-02T09:58:32.164Z,77.60
2018-11-02T10:01:00.789Z,77.90
2018-11-02T10:03:29.469Z,77.40
2018-11-02T10:05:58.129Z,77.00
2018-11-02T10:08:27.002Z,76.90
2018-11-02T10:10:55.676Z,77.00
2018-11-02T10:13:25.101Z,75.80
2018-11-02T10:15:53.915Z,76.40
2018-11-02T10:18:22.797Z,76.20
2018-11-02T10:20:51.521Z,73.50
2018-11-02T10:23:20.430Z,72.90
2018-11-02T10:25:49.225Z,73.60
2018-11-02T10:28:18.110Z,72.20
2018-11-02T10:30:46.883Z,72.80
2018-11-02T10:33:16.018Z,72.40
2018-11-02T10:35:45.136Z,72.00
2018-11-02T10:38:14.342Z,71.30
2018-11-02T10:40:46.243Z,70.10
2018-11-02T10:43:16.945Z,69.60
2018-11-02T10:45:46.950Z,69.00
2018-11-02T10:48:17.256Z,69.00
2018-11-02T10:50:46.030Z,68.40
2018-11-02T10:53:14.922Z,68.30
2018-11-02T10:55:43.595Z,67.20
2018-11-02T10:58:19.753Z,66.60
2018-11-02T11:00:59.008Z,65.10
2018-11-02T11:03:27.849Z,63.60
2018-11-02T11:05:56.568Z,61.90
2018-11-02T11:08:25.319Z,62.70
2018-11-02T11:10:54.328Z,64.50
2018-11-02T11:13:23.394Z,64.50
2018-11-02T11:15:52.036Z,66.40
2018-11-02T11:18:20.705Z,66.70
2018-11-02T11:20:49.712Z,67.00
2018-11-02T11:23:18.644Z,66.80
2018-11-02T11:25:47.249Z,67.10
2018-11-02T11:28:16.893Z,65.00
2018-11-02T11:30:45.640Z,65.00
2018-11-02T11:33:14.387Z,63.10
2018-11-02T11:35:43.267Z,62.00
2018-11-02T11:38:12.202Z,61.60
2018-11-02T11:40:40.938Z,60.30
2018-11-02T11:43:09.636Z,56.80
2018-11-02T11:45:38.342Z,50.30
2018-11-02T11:48:07.006Z,45.90
2018-11-02T11:50:35.880Z,43.50
2018-11-02T11:53:04.583Z,42.50
2018-11-02T11:55:33.625Z,42.10
2018-11-02T11:58:02.484Z,40.90
2018-11-02T12:00:31.366Z,38.20
2018-11-02T12:03:00.153Z,36.50
2018-11-02T12:05:28.837Z,36.00
2018-11-02T12:07:57.955Z,38.30
2018-11-02T12:10:26.883Z,39.40
2018-11-02T12:12:55.835Z,42.10
2018-11-02T12:15:24.710Z,41.10
2018-11-02T12:17:53.335Z,38.00
2018-11-02T12:20:24.562Z,35.70
2018-11-02T12:22:55.134Z,34.10
2018-11-02T12:25:23.884Z,34.30
2018-11-02T12:27:52.914Z,37.10
2018-11-02T12:30:21.785Z,37.50
2018-11-02T12:32:53.711Z,35.70
2018-11-02T12:35:22.580Z,37.50
2018-11-02T12:37:54.178Z,35.10
2018-11-02T12:40:23.623Z,38.20
2018-11-02T12:42:53.379Z,38.60
2018-11-02T12:45:22.725Z,36.50
2018-11-02T12:50:44.997Z,39.20
2018-11-02T12:53:14.838Z,41.10
2018-11-02T12:55:43.720Z,40.60
2018-11-02T12:58:12.459Z,38.80
2018-11-02T13:00:41.197Z,36.20
2018-11-02T13:03:09.871Z,34.40
2018-11-02T13:05:39.964Z,34.20
2018-11-02T13:08:08.451Z,34.40
2018-11-02T13:10:43.932Z,36.20
2018-11-02T13:13:24.198Z,40.70
2018-11-02T13:15:53.349Z,45.00
2018-11-02T13:18:22.063Z,48.40
2018-11-02T13:20:50.819Z,51.00
2018-11-02T13:23:19.516Z,53.10
2018-11-02T13:25:48.420Z,55.40
2018-11-02T13:28:17.152Z,57.40
2018-11-02T13:30:45.967Z,58.40
2018-11-02T13:33:14.765Z,59.30
2018-11-02T13:35:43.674Z,59.70
2018-11-02T13:38:12.345Z,60.20
2018-11-02T13:40:42.797Z,59.90
2018-11-02T13:43:17.512Z,59.90
2018-11-02T13:45:51.661Z,58.70
2018-11-02T13:48:20.363Z,58.80
2018-11-02T13:50:49.171Z,59.20
2018-11-02T13:53:17.867Z,58.60
2018-11-02T13:56:06.407Z,55.50
2018-11-02T13:58:35.489Z,49.20
2018-11-02T14:01:04.387Z,45.90
2018-11-02T14:03:33.324Z,47.50
2018-11-02T14:06:02.102Z,50.00
2018-11-02T14:08:34.540Z,52.30
2018-11-02T14:11:03.377Z,54.50
2018-11-02T14:13:32.091Z,56.90
2018-11-02T14:16:00.981Z,58.50
2018-11-02T14:18:30.237Z,59.80
2018-11-02T14:20:58.747Z,60.90
2018-11-02T14:23:27.537Z,62.00
2018-11-02T14:25:57.162Z,63.20
2018-11-02T14:28:25.870Z,63.80
2018-11-02T14:30:54.523Z,59.30
2018-11-02T14:33:23.235Z,56.10
2018-11-02T14:35:51.970Z,53.80
2018-11-02T14:38:20.659Z,53.60
2018-11-02T14:40:49.420Z,53.90
2018-11-02T14:43:18.037Z,55.60
2018-11-02T14:48:33.982Z,57.00
2018-11-02T14:51:06.467Z,56.70
2018-11-02T14:53:37.227Z,57.00
2018-11-02T14:56:05.834Z,58.40
2018-11-02T14:58:36.359Z,59.20
2018-11-02T15:04:11.706Z,60.70
2018-11-02T15:06:47.353Z,61.80
2018-11-02T15:20:47.978Z,64.50
2018-11-02T15:23:16.926Z,64.70
2018-11-02T15:25:46.450Z,65.30
2018-11-02T15:28:18.615Z,65.60
2018-11-02T15:30:47.771Z,65.90
2018-11-02T15:33:19.011Z,66.10
2018-11-02T15:35:50.582Z,66.20
2018-11-02T15:38:41.522Z,66.20
2018-11-02T15:41:13.688Z,66.40
2018-11-02T15:43:45.079Z,66.60
2018-11-02T15:46:13.969Z,66.50
2018-11-02T15:48:42.685Z,66.60
2018-11-02T15:51:11.280Z,66.40
2018-11-02T15:53:40.006Z,66.90
2018-11-02T15:56:09.900Z,67.10
2018-11-02T15:58:39.604Z,67.50
2018-11-02T16:01:08.383Z,68.00
2018-11-02T16:03:37.591Z,68.10
2018-11-02T16:06:06.500Z,68.80
2018-11-02T16:08:35.119Z,69.40
2018-11-02T16:11:04.006Z,69.80
2018-11-02T16:13:32.562Z,70.50
2018-11-02T16:16:01.475Z,70.90
2018-11-02T16:18:30.165Z,70.80
2018-11-02T16:20:58.907Z,72.10
2018-11-02T16:23:28.224Z,72.60
2018-11-02T16:25:56.928Z,73.20
2018-11-02T16:28:25.588Z,73.60
2018-11-02T16:30:54.279Z,74.20
2018-11-02T16:33:25.394Z,74.40
2018-11-02T16:35:56.421Z,74.50
2018-11-02T16:38:25.480Z,74.90
2018-11-02T16:41:02.728Z,74.90
2018-11-02T16:47:02.985Z,74.80
2018-11-02T16:49:32.731Z,74.80
2018-11-02T16:52:02.038Z,75.10
2018-11-02T16:54:31.448Z,75.10
2018-11-02T16:57:00.730Z,75.40
2018-11-02T16:59:29.532Z,75.80
2018-11-02T17:01:58.708Z,76.00
2018-11-02T17:04:29.527Z,76.00
2018-11-02T17:06:58.613Z,76.10
2018-11-02T17:09:27.925Z,76.80
2018-11-02T17:11:59.967Z,77.00
2018-11-02T17:14:30.894Z,77.90
2018-11-02T17:17:00.287Z,77.20
2018-11-02T17:19:29.622Z,77.20
2018-11-02T17:21:59.667Z,77.70
2018-11-02T17:24:28.615Z,77.90
2018-11-02T17:26:58.611Z,78.10
2018-11-02T17:29:28.062Z,78.30
2018-11-02T17:31:57.959Z,78.20
2018-11-02T17:34:27.926Z,78.30
2018-11-02T17:36:56.804Z,78.10
2018-11-02T17:39:26.290Z,78.00
2018-11-02T17:41:54.969Z,78.00
2018-11-02T17:44:24.002Z,78.20
2018-11-02T17:46:53.559Z,78.30
2018-11-02T17:49:22.576Z,78.70
2018-11-02T17:51:51.501Z,79.00
2018-11-02T17:54:21.404Z,79.30
2018-11-02T17:56:50.932Z,79.50
2018-11-02T17:59:19.864Z,79.80
2018-11-02T18:01:48.801Z,80.00
2018-11-02T18:04:17.852Z,80.00
2018-11-02T18:06:46.974Z,80.30
2018-11-02T18:09:16.331Z,80.50
2018-11-02T18:11:45.352Z,80.70
2018-11-02T18:14:14.173Z,80.90
2018-11-02T18:16:43.086Z,81.00
2018-11-02T18:19:13.384Z,81.10
2018-11-02T18:21:42.642Z,81.10
2018-11-02T18:24:11.329Z,81.30
2018-11-02T18:26:40.616Z,81.50
2018-11-02T18:29:09.540Z,81.60
2018-11-02T18:31:38.139Z,81.60
2018-11-02T18:34:06.837Z,82.10
2018-11-02T18:36:35.960Z,81.40
2018-11-02T18:39:08.782Z,81.50
2018-11-02T18:41:37.437Z,81.60
2018-11-02T18:44:06.490Z,81.80
2018-11-02T18:46:35.331Z,82.20
2018-11-02T18:49:04.504Z,82.20
2018-11-02T18:51:34.044Z,82.40
2018-11-02T18:54:02.773Z,82.60
2018-11-02T18:56:31.540Z,82.80
2018-11-02T18:59:00.234Z,82.70
2018-11-02T19:01:29.984Z,82.80
2018-11-02T19:03:59.102Z,83.10
2018-11-02T19:06:29.481Z,83.00
2018-11-02T19:08:59.444Z,84.10
2018-11-02T19:11:28.316Z,83.40
2018-11-02T19:13:58.040Z,83.30
2018-11-02T19:16:26.934Z,83.50
2018-11-02T19:18:55.979Z,83.80
2018-11-02T19:21:25.207Z,83.20
2018-11-02T19:23:54.037Z,83.30
2018-11-02T19:26:23.090Z,83.30
2018-11-02T19:28:52.405Z,83.30
2018-11-02T19:31:21.139Z,83.40
2018-11-02T19:33:49.707Z,83.70
2018-11-02T19:36:18.756Z,83.80
2018-11-02T19:38:47.858Z,83.80
2018-11-02T19:41:16.953Z,83.80
2018-11-02T19:43:46.081Z,83.60
2018-11-02T19:46:15.454Z,83.40
2018-11-02T19:48:45.296Z,83.70
2018-11-02T19:51:14.491Z,83.60
2018-11-02T19:53:43.428Z,83.50
2018-11-02T19:56:12.843Z,83.60
2018-11-02T19:58:42.722Z,83.60
2018-11-02T20:01:11.828Z,83.70
2018-11-02T20:03:42.169Z,83.90
2018-11-02T20:06:11.592Z,84.00
2018-11-02T20:08:40.935Z,84.00
2018-11-02T20:11:09.988Z,84.00
2018-11-02T20:13:39.126Z,84.00
2018-11-02T20:16:08.391Z,83.90
2018-11-02T20:18:37.371Z,84.00
2018-11-02T20:21:06.053Z,83.90
2018-11-02T20:23:34.766Z,83.90
2018-11-02T20:26:04.813Z,83.90
2018-11-02T20:28:33.860Z,84.00
2018-11-02T20:31:02.585Z,84.00
2018-11-02T20:33:32.092Z,83.70
2018-11-02T20:36:02.542Z,83.60
2018-11-02T20:38:31.891Z,83.60
2018-11-02T20:41:01.232Z,83.60
2018-11-02T20:43:31.308Z,83.50
2018-11-02T20:46:00.668Z,83.60
2018-11-02T20:48:31.442Z,83.80
2018-11-02T20:51:01.226Z,83.80
2018-11-02T20:53:30.780Z,83.70
2018-11-02T20:56:00.297Z,84.00
2018-11-02T20:58:29.651Z,84.00
2018-11-02T21:01:00.008Z,83.90
2018-11-02T21:03:29.324Z,83.60
2018-11-02T21:05:58.893Z,83.40
2018-11-02T21:08:28.343Z,83.20
2018-11-02T21:10:58.539Z,82.90
2018-11-02T21:13:29.402Z,82.90
2018-11-02T21:15:59.199Z,82.90
2018-11-02T21:18:28.671Z,83.00
2018-11-02T21:20:58.162Z,82.50
2018-11-02T21:23:26.915Z,82.60
2018-11-02T21:25:56.641Z,82.60
2018-11-02T21:28:27.042Z,82.50
2018-11-02T21:30:57.312Z,82.80
2018-11-02T21:33:27.914Z,82.80
2018-11-02T21:35:56.586Z,82.80
2018-11-02T21:38:25.195Z,82.60
2018-11-02T21:40:53.777Z,82.50
2018-11-02T21:43:22.864Z,82.50
2018-11-02T21:45:52.548Z,82.50
2018-11-02T21:48:22.635Z,82.60
2018-11-02T21:50:52.586Z,82.70
2018-11-02T21:53:21.310Z,82.70
2018-11-02T21:55:51.915Z,82.70
2018-11-02T21:58:21.809Z,82.80
2018-11-02T22:00:57.557Z,82.80
2018-11-02T22:03:26.982Z,83.60
2018-11-02T22:05:57.105Z,82.80
2018-11-02T22:08:27.054Z,82.90
2018-11-02T22:10:57.449Z,82.70
2018-11-02T22:13:26.714Z,82.40
2018-11-02T22:15:56.722Z,82.40
2018-11-02T22:18:26.390Z,82.10
2018-11-02T22:20:56.381Z,82.10
2018-11-02T22:23:25.606Z,82.10
2018-11-02T22:25:54.462Z,81.90
2018-11-02T22:28:24.318Z,82.20
2018-11-02T22:30:53.945Z,82.30
2018-11-02T22:33:23.352Z,82.10
2018-11-02T22:35:53.352Z,82.10
2018-11-02T22:38:23.691Z,82.00
2018-11-02T22:40:52.484Z,81.70
2018-11-02T22:43:21.610Z,81.70
2018-11-02T22:45:51.340Z,81.80
2018-11-02T22:48:25.992Z,81.80
2018-11-02T22:50:56.795Z,81.70
2018-11-02T22:53:25.460Z,81.80
2018-11-02T22:55:54.812Z,81.80
2018-11-02T22:58:25.006Z,82.00
2018-11-02T23:01:00.220Z,82.30
2018-11-02T23:03:29.704Z,82.60
2018-11-02T23:05:59.236Z,83.00
2018-11-02T23:08:29.443Z,83.00
2018-11-02T23:10:58.686Z,83.00
2018-11-02T23:13:28.140Z,83.50
2018-11-02T23:15:57.959Z,83.80
2018-11-02T23:18:28.338Z,84.40
2018-11-02T23:20:57.477Z,84.90
2018-11-02T23:23:26.464Z,85.00
2018-11-02T23:25:55.915Z,85.40
2018-11-02T23:28:26.016Z,85.60
2018-11-02T23:30:55.432Z,85.70
2018-11-02T23:33:25.115Z,86.10
2018-11-02T23:35:53.745Z,86.20
2018-11-02T23:38:23.888Z,86.30
2018-11-02T23:40:53.032Z,86.40
2018-11-02T23:43:22.472Z,86.40
2018-11-02T23:45:51.631Z,86.60
2018-11-02T23:48:21.094Z,86.70
2018-11-02T23:50:51.288Z,86.70
2018-11-02T23:53:20.721Z,87.10
2018-11-02T23:55:50.780Z,87.10
2018-11-02T23:58:19.928Z,87.30
